Requested Movies (361)

Sl No Movie Name Movie Category Download Date & Time
1 Sacred Games Season 1&2 Dual Audio Hindi Tv Series Download 2019-10-01 13:48:59
2 Laaga Chunari Mein Daag (2007) Hindi Movie Download 2019-10-01 13:43:49
3 Love (2015) English Movie Download 2019-10-01 13:15:55
4 Dream Girl (2019) CAMRip Hindi Movie Download 2019-10-01 13:14:38
5 Chandni (1989) Hindi Movie Download 2019-10-01 13:13:32
6 Brahmotsavam (2016) 720p BluRay Hindi Dubbed Tamil & Telegu Movie Download 2019-10-01 13:07:09
7 Arn Tempelriddaren (2007) Foreign Movie Download 2019-10-01 13:06:15
8 Shrek all movies Animation Movie Download 2019-10-01 13:04:09
9 Ice Age All Animation Movies Animation Movie Download 2019-10-01 13:00:17
10 Praktan (2016) DVDRip Indian Bangla Movie Download 2019-10-01 12:57:47
11 Belaseshe (2015) DVDRip Indian Bangla Movie Download 2019-10-01 12:55:22
12 Kadaram Kondan (2019) WEBRip Tamil & Telegu Movie Download 2019-10-01 12:41:25
13 Charlie (2015) HDRip Tamil & Telegu Movie Download 2019-10-01 12:39:36
14 Charlie (2015) HDRip Tamil & Telegu Movie Download 2019-09-22 11:50:50
15 Area 51 (2015) 720p BluRay Hindi Dubbed Hindi Dubbed Movie Download 2019-09-22 10:33:04
16 Kingsman The Golden Circle (2017) 720p BluRay English Movie Download 2019-09-22 10:31:52
17 Maharshi (2019) WEB-HD Tamil & Telegu Movie Download 2019-09-22 10:31:16
18 Kaashi in Search of Ganga (2018) Hindi Movie Download 2019-09-22 10:30:56
19 It (2017) 720p BluRay English Movie Download 2019-09-22 10:30:19
20 Game of Thrones Season 8 Complete English Tv Series Download 2019-09-22 10:29:39
21 Friends season 1,2,3,4,5,6,7,8,9,10 Complete English Tv Series Download 2019-09-22 10:28:54
22 Chasing Liberty (2004) English Movie Download 2019-09-22 10:28:07
23 Peaky Blinders Season 1,2,3,4 Complete English Tv Series Download 2019-09-22 10:27:25
24 Special 26 (2013) Hindi Movie Download 2019-06-10 17:46:48
25 Student of the Year 2 (2019) CAMRip Hindi Movie Download 2019-05-15 18:09:03
26 Titanic (1997) 720p Bluray English Movie Download 2019-05-15 18:01:58
27 Pokémon Detective Pikachu (2019) HDCAM English Movie Download 2019-05-15 18:01:02
28 Shah Jahan Regency (2019) Bangla Tv Series Download 2019-05-15 18:00:32
29 Oh! Mother (2018) Addatimes Season 1 Bangla Tv Series Download 2019-04-18 17:38:00
30 King Arthur Collection English Movie Download 2019-04-18 17:12:01
31 Torque (2004) 720p BluRay Hindi Dubbed English Movie Download 2019-04-18 17:02:38
32 Raazi (2018) 1080p BluRay Hindi Movie Download 2019-04-18 17:01:18
33 Sanam Teri Kasam (2015) Hindi Movie Download 2019-04-18 16:59:18
34 Devdas (2002) Hindi Movie Download 2019-04-18 16:58:37
35 It (2017) Dual Audio English Movie Download 2019-04-14 19:59:09
36 Mostly Sunny (2016) WEBRip Hindi Movie Download 2019-04-14 19:56:41
37 Friends Season 1,2,3,4,5,6,7,8,9,10 Complete English Tv Series Download 2019-04-14 19:56:00
38 Slumdog Millionaire (2008) 720p BluRay Hindi Dubbed English Movie Download 2019-04-14 19:53:41
39 Fifa 19 - CPY - Crack Only PC Games Download 2019-04-14 19:52:47
40 Chronicles of the Ghostly Tribe (2015) English Movie Download 2019-04-14 19:52:01
41 Ra.One (2011) 1080p BluRay Hindi Movie Download 2019-04-14 19:51:30
42 Mektoub, My Love: Canto Uno (2017) 720p BluRay Foreign Movie Download 2019-04-14 19:50:47
43 The Amazing Spider-Man (2012) 1080p BluRay English Movie Download 2019-04-11 11:09:36
44 Gangs of Wasseypur I & 2 Hindi Movie Download 2019-04-11 11:08:52
45 WWE WrestleMania 35 Kickoff Sport Heighlight Download 2019-04-11 11:08:11
46 Total Dadagiri (2018) HDRip Indian Bangla Movie Download 2019-04-11 11:07:39
47 It's a Wonderful Life (1946) 1080p BluRay English Movie Download 2019-04-11 11:06:40
48 Asura (2018) HDRip China Movie Download 2019-04-11 11:05:48
49 Forza Horizon 3 PC Games PC Games Download 2019-04-11 11:05:14
50 Badhaai Ho (2018) 720p BluRay Hindi Movie Download 2019-04-06 20:16:33
51 Love (2015) 1080p BluRay English Movie Download 2019-04-06 20:14:59
52 The Dictator (2012) 720p BluRay English Movie Download 2019-04-06 20:13:58
53 Padman (2018) 1080p BluRay Hindi Movie Download 2019-04-06 20:13:02
54 Spider-Man Movie Sequels English Movie Download 2019-04-06 20:09:33
55 Simmba (2018) DVDRip Hindi Movie Download 2019-04-06 20:08:25
56 Shazam! (2019) HDCAM English Movie Download 2019-04-06 20:02:00
57 Boom (2003) Hindi Movie Download 2019-04-06 20:01:31
58 Microsoft Office Professional Plus 2019 (x86+x64) Software Download 2019-04-06 20:00:38
59 Goynar Baksho (2013) Indian Bangla Movie Download 2019-04-06 19:59:01
60 Now You See Me 1 & 2 English Movie Download 2019-04-06 19:56:58
61 The Mermaid (2016) 720p BluRay Hindi Dubbed Foreign Movie Download 2019-04-06 19:56:12
62 The Treacherous (2015) 720p BluRay Foreign Movie Download 2019-04-04 15:08:10
63 2.0 (2018) HDRip Hindi Dubbed Hindi Movie Download 2019-04-04 15:07:35
64 K.G.F: Chapter 1 (2018) Hindi Dubbed Tamil & Telegu Movie Download 2019-04-04 15:06:37
65 Spider-man Movie Collection English Movie Download 2019-04-04 15:06:10
66 Viswasam (2019) Tamil & Telegu Movie Download 2019-04-04 15:05:18
67 Hum Aapke Hain Koun (1994) Hindi Movie Download 2019-04-04 15:03:41
68 Wanted (2008) 720p BluRay English Movie Download 2019-04-04 15:02:02
69 Far Cry 3-RELOADED PC Games PC Games Download 2019-04-04 15:00:19
70 Aquaman (2018) Dual Audio English Movie Download 2019-04-04 14:59:37
71 How to Train Your Dragon: The Hidden World (2019) HDRip Animation Movie Download 2019-04-03 13:17:10
72 Life Is Beautiful (1997) Hindi Dubbed Foreign Movie Download 2019-04-03 13:16:17
73 13 Reasons Why Season 1 & 2 English Tv Series Download 2019-04-03 13:14:38
74 Andhadhun (2018) 720p BluRay Hindi Movie Download 2019-04-02 18:14:04
75 Adobe Illustrator CC 2017 (32 & 64bit) Software Download 2019-04-02 18:07:32
76 Blindspot Season 1,2 Complete English Tv Series Download 2019-04-02 18:06:37
77 Avengers Infinity War (2018) 720p BluRay English Movie Download 2019-04-02 17:46:36
78 Happy Phirr Bhag Jayegi (2018) 720p BluRay Hindi Movie Download 2019-03-31 11:03:23
79 Vinaya Vidheya Rama (2019) WEB-HD Tamil & Telegu Movie Download 2019-03-31 11:02:49
80 K.G.F: Chapter 1 (2018) Hindi Dubbed Hindi Movie Download 2019-03-31 10:59:44
81 Junga The Real Don (2019) Hindi Dubbed Tamil & Telegu Movie Download 2019-03-31 10:59:14
82 PK (2014) 1080p BluRay Hindi Movie Download 2019-03-28 14:22:26
83 Thaanaa Serndha Koottam (2018) 720p BluRay Tamil & Telegu Movie Download 2019-03-28 14:21:20
84 Guardian The Lonely and Great God Season 1 Complete Korean Movie Download 2019-03-27 18:19:47
85 Race (2008) 720p BluRay Hindi Movie Download 2019-03-27 18:16:03
86 Goliyon Ki Rasleela Ram-Leela (2013) 1080p BluRay Hindi Movie Download 2019-03-27 18:14:39
87 The Mummy (1999) Hindi Dubbed English Movie Download 2019-03-27 18:12:01
88 Delhi Crime (2019) Season 1 Hindi Tv Series Download 2019-03-26 13:57:41
89 Goliyon Ki Rasleela Ram-Leela (2013) Hindi Movie Download 2019-03-26 13:57:17
90 WALL·E (2008) 1080p BluRay Animation Movie Download 2019-03-26 13:56:42
91 No Mercy (2010) Korean Movie Download 2019-03-26 13:56:03
92 Gully Boy (2019) CAMRip Hindi Movie Download 2019-03-26 13:55:03
93 Hello Guru Prema Kosame (2018) Tamil & Telegu Movie Download 2019-03-26 13:54:26
94 The Avengers (2012) 1080p BluRay English Movie Download 2019-03-26 13:53:55
95 Sacred Games Season 1 Complete Hindi Tv Series Download 2019-03-26 13:53:07
96 Roy (2015) 720p BluRay Hindi Movie Download 2019-03-26 13:50:10
97 Hate Story 3 (2015) Hindi Movie Download 2019-03-26 13:49:09
98 Wanted (2009) Hindi Movie Download 2019-03-23 14:58:17
99 Aadupuliyattam (2016) Dual Audio Tamil & Telegu Movie Download 2019-03-23 14:57:18
100 A Moment to Remember (2004) Foreign Movie Download 2019-03-23 14:56:42
101 The Twilight Saga Eclipse (2010) 720p BluRay Hindi Dubbed English Movie Download 2019-03-23 14:55:35
102 Raazi (2018) 1080p BluRay Hindi Movie Download 2019-03-23 14:54:29
103 Sonu Ke Titu Ki Sweety (2018) DVDRip Hindi Movie Download 2019-03-23 14:53:12
104 Ode to My Father (2014) Korean Movie Download 2019-03-23 14:52:28
105 Grand Masti (2013) 720p BluRay Hindi Movie Download 2019-03-23 14:51:33
106 Baaghi 2 (2018) 1080p BluRay Hindi Movie Download 2019-03-23 14:49:53
107 Bohemian Rhapsody (2018) 720p BluRay English Movie Download 2019-03-23 14:48:12
108 Paddington 2 (2017) Animation Movie Download 2019-03-19 12:54:29
109 Kedarnath (2018) WEB-DL Hindi Movie Download 2019-03-19 12:37:42
110 Her (2013) Dual Audio English Movie Download 2019-03-19 12:37:02
111 The Mummy (1999) English Movie Download 2019-03-19 12:35:39
112 Skyscraper (2018) 1080p BluRay English Movie Download 2019-03-19 12:33:25
113 Crank: High Voltage (2009) English Movie Download 2019-03-19 12:29:50
114 Tholi Prema (2018) WEB-HD Tamil & Telegu Movie Download 2019-03-18 12:45:47
115 Captain Marvel (2019) HDCAM English Movie Download 2019-03-18 12:45:16
116 Sanju (2018) 1080p BluRay Hindi Movie Download 2019-03-18 12:44:43
117 Wonder (2017) 720p BluRay English Movie Download 2019-03-18 12:44:04
118 The Mummy (1999) 720p Blu-Ray Hindi Dubbed English Movie Download 2019-03-14 18:27:52
119 Zero (2018) WEB-DL Hindi Movie Download 2019-03-14 18:25:05
120 Krrish 1,2,3 Hindi Movie Download 2019-03-14 18:23:56
121 Devil May Cry PC Game PC Games Download 2019-03-14 18:23:21
122 Logan (2017) 720p BluRay English Movie Download 2019-03-14 18:21:56
123 Ralph Breaks the Internet (2018) 720p BluRay Animation Movie Download 2019-03-14 18:20:39
124 Titanic (1997) English Movie Download 2019-03-14 18:19:43
125 The Transporter 3 (2008) English Tv Series Download 2019-03-14 18:18:41
126 The Transporter (2002) English Movie Download 2019-03-14 18:18:01
127 Maari 2 (2018) WEB-HD ESub Tamil & Telegu Movie Download 2019-03-14 18:17:03
128 Fifty Shades Darker (2017) 1080p BluRay English Movie Download 2019-03-14 18:16:12
129 Asura (2018) HDRip Foreign Movie Download 2019-03-14 18:08:03
130 K.G.F: Chapter 1 (2018) Hindi Dubbed Tamil & Telegu Movie Download 2019-03-14 17:55:38
131 Asura (2018) HDRip Foreign Movie Download 2019-03-14 14:47:46
132 How to Train Your Dragon: The Hidden World (2019) HDCAM Animation Movie Download 2019-03-10 11:20:18
133 Babumoshai Bandookbaaz (2017) Hindi Movie Download 2019-03-10 11:02:32
134 Hate Story IV (2018) HDRip Hindi Movie Download 2019-03-09 12:23:57
135 Motu Patlu-King Of Kings (2016) Animation Movie Download 2019-03-09 12:23:26
136 Captain Marvel (2019) HDCAM English Movie Download 2019-03-09 12:20:07
137 Masss (2015) Hindi Dubbed Tamil & Telegu Movie Download 2019-03-07 18:12:58
138 Raid (2018) 1080p BluRay Hindi Movie Download 2019-03-07 18:12:02
139 Bajirao Mastani (2015) Hindi Movie Download 2019-03-07 18:09:29
140 Race 3 (2018) Hindi Movie Download 2019-03-07 18:09:03
141 The Fourth Kind (2009) English Movie Download 2019-03-07 18:07:52
142 Bodyguard (2011) Hindi Movie Download 2019-03-07 18:05:48
143 Holy Faak Hoichoi Season 2 Complete Bangla Tv Series Download 2019-03-07 18:04:27
144 Holy Faak Hoichoi Season 1 Complete Bangla Tv Series Download 2019-03-07 18:02:09
145 Holy Faak (2017) Indian Bangla Movie Download 2019-03-07 18:01:42
146 Sex and Death 101 (2007) English Movie Download 2019-03-07 18:00:28
147 Total Dhamaal (2019) CAMRip Hindi Movie Download 2019-03-07 18:00:03
148 Srirastu Subhamastu (2016) HDrip Tamil & Telegu Movie Download 2019-03-07 17:59:39
149 Kambakkht Ishq (2009) Hindi Movie Download 2019-03-07 17:59:12
150 Thugs of Hindostan (2018) 720p BluRay Hindi Movie Download 2019-03-07 17:58:45
151 Hello! (2019) Season 02 Episodes (01-06) Bangla Tv Series Download 2019-03-05 18:18:10
152 Mersal (2017) Dual Audio Tamil & Telegu Movie Download 2019-03-05 18:13:32
153 Rick and Morty Season 1,2,3 Complete Animation Movie Download 2019-03-05 18:13:04
154 The Pursuit of Happyness (2006) English Movie Download 2019-03-05 18:11:50
155 Fifty Shades of Grey (2015) English Movie Download 2019-03-05 18:11:14
156 Spider-Man: Into the Spider-Verse (2018) Animation Movie Download 2019-03-05 18:10:14
157 The Attacks of 26-11 (2013) Hindi Movie Download 2019-03-05 18:09:45
158 1 Mile to You (2017) English Movie Download 2019-03-05 18:09:14
159 Mission Impossible - Fallout (2018) 1080p BluRay English Movie Download 2019-03-05 18:08:42
160 Devdas (2002) Hindi Movie Download 2019-03-05 18:07:16
161 Fantastic Four Rise of the Silver Surfer (2007) English Movie Download 2019-03-05 18:06:40
162 Night at the Museum (2006) English Movie Download 2019-03-05 18:05:55
163 Begum Jaan (2017) Hindi Movie Download 2019-03-05 18:05:10
164 Holy Faak Hoichoi Season 2 Bangla Tv Series Download 2019-03-05 18:04:43
165 White House Down (2013) English Movie Download 2019-03-05 18:03:29
166 Mektoub, My Love: Canto Uno (2017) English Movie Download 2019-03-05 18:03:05
167 Ant-Man and the Wasp (2018) Dual Audio English Movie Download 2019-03-05 17:52:00
168 Adobe Photoshop 7.0 Software Download 2019-03-05 17:50:07
169 Up (2009) Animation Movie Download 2019-03-01 19:47:56
170 Uri The Surgical Strike (2019) WEB-DL Hindi Movie Download 2019-03-01 19:47:20
171 Venom (2018) 720p BluRay English Movie Download 2019-03-01 19:45:52
172 Sanam Re (2016) DVDRip Hindi Movie Download 2019-03-01 19:44:29
173 Tiger Zinda Hai (2017) 720p BluRay Hindi Movie Download 2019-03-01 19:41:48
174 Vinaya Vidheya Rama (2019) WEB-HD Tamil & Telegu Movie Download 2019-03-01 19:41:08
175 Dil To Pagal Hai (1997) 1080p BluRay Hindi Movie Download 2019-03-01 19:40:38
176 The Ghazi Attack (2017) 720p BluRay Hindi Movie Download 2019-03-01 19:40:16
177 The Boss Baby (2017) 720p BluRay Animation Movie Download 2019-03-01 19:39:25
178 Sultan (2016) Hindi Movie Download 2019-03-01 19:38:49
179 Mom (2017) 720p BluRay Hindi Movie Download 2019-03-01 19:34:06
180 Golmaal Again (2017) 720p BluRay Hindi Movie Download 2019-03-01 19:33:13
181 Rishtey (2002) Hindi Movie Download 2019-03-01 19:32:41
182 3 Idiots (2009) Hindi Movie Download 2019-03-01 19:32:12
183 Doubt (2008) English Movie Download 2019-03-01 19:30:21
184 Assalamualaikum Beijing (2014) Foreign Movie Download 2019-03-01 19:29:53
185 The Iron Lady (2011) English Movie Download 2019-03-01 19:29:23
186 Jannat 2 (2012) Hindi Movie Download 2019-03-01 19:28:52
187 Aquaman (2018) HDRip English Movie Download 2019-03-01 19:10:44
188 Operation Red Sea (2018) Foreign Movie Download 2019-03-01 19:09:19
189 Operation Cobra (2019) WEB DL Hindi Movie Download 2019-03-01 19:08:35
190 Taranath Tantrik (2019) Season 1 Bangla Tv Series Download 2019-03-01 19:08:00
191 K.G.F: Chapter 1 (2018) Hindi Dubbed Tamil & Telegu Movie Download 2019-03-01 19:04:18
192 Raja The Great (2017) HDRip Tamil & Telegu Movie Download 2019-03-01 19:00:26
193 Genius (2018) Hindi Movie Download 2019-02-24 18:15:20
194 Doctor Strange (2016) English Movie Download 2019-02-24 18:14:47
195 The Longest Yard (2005) English Movie Download 2019-02-24 18:10:46
196 Avengers Infinity War (2018) English Movie Download 2019-02-24 18:09:30
197 Ralph Breaks the Internet (2018) Animation Movie Download 2019-02-24 18:08:42
198 The Mummy (2017) English Movie Download 2019-02-24 17:55:59
199 Grand Theft Auto V PC Game PC Games Download 2019-02-24 17:55:13
200 Baaghi 2 (2018) Hindi Movie Download 2019-02-24 17:53:41
201 Holy Faak Hoichoi Season 2 Complete Bangla Tv Series Download 2019-02-24 17:53:18
202 Holy Faak Hoichoi Season 1 Complete Indian Bangla Movie Download 2019-02-24 17:52:51
203 Van Helsing (2004) English Movie Download 2019-02-24 17:51:55
204 Gabbar is Back (2015) Hindi Movie Download 2019-02-24 17:47:39
205 Raees (2017) Hindi Movie Download 2019-02-24 17:46:09
206 Behind Enemy Lines (2001) English Movie Download 2019-02-12 18:07:48
207 The Mummy (2017) English Movie Download 2019-02-12 18:06:47
208 Hostel 2 (2007) English Movie Download 2019-02-12 18:06:05
209 Mastizaade (2016) Hindi Movie Download 2019-02-12 18:05:04
210 Hungama (2003) Hindi Movie Download 2019-02-12 18:04:38
211 Forrest Gump (1994) English Movie Download 2019-02-08 16:21:05
212 Fast and Furious 3 Tokyo Drift (2006) English Movie Download 2019-02-08 16:19:50
213 Damini (1993) Hindi Movie Download 2019-02-08 16:19:22
214 2012 (2009) 1080p BluRay English Movie Download 2019-01-23 20:12:17
215 Befikre (2016) Hindi Movie Download 2019-01-23 20:11:37
216 Fantastic Four Rise of the Silver Surfer (2007) Hindi Dubbed English Movie Download 2019-01-23 20:10:44
217 Srimanthudu (2015) Hindi Dubbed Tamil & Telegu Movie Download 2019-01-23 20:10:03
218 Ek Tha Tiger (2012) Hindi Movie Download 2019-01-23 20:09:37
219 Stree (2018) 720p BluRay Hindi Movie Download 2019-01-23 20:08:57
220 Titanic (1997) English Movie Download 2019-01-23 20:08:29
221 Sherlock Season 1,2,3,4 Complete English Tv Series Download 2019-01-23 20:07:56
222 Om Shanti Om (2007) Hindi Movie Download 2019-01-23 20:07:25
223 Race 3 (2018) Hindi Movie Download 2019-01-23 20:05:55
224 Naked (2017) English Movie Download 2019-01-23 20:05:23
225 Chennai Express (2013) Hindi Movie Download 2019-01-23 20:04:27
226 Fantastic Four -Rise of the Silver Surfer (2007) English Movie Download 2019-01-23 20:03:40
227 WinRAR & WinZIP Software Software Download 2019-01-23 20:03:11
228 Salaam-E-Ishq (2007) Hindi Movie Download 2019-01-23 20:01:34
229 Kaal (2005) Hindi Movie Download 2019-01-23 20:00:41
230 Dhanbad Blues (2018) Season 1 Hoichoi Originals Bangla Tv Series Download 2019-01-20 18:32:55
231 Shaolin Soccer (2001) English Movie Download 2019-01-20 18:30:43
232 Hachi - A Dog's Tale (2009) 720p BluRay English Movie Download 2019-01-20 18:29:34
233 Call of Duty Black Ops II PC Game PC Games Download 2019-01-20 18:28:43
234 Ted 2 (2015) 720p BluRay English Movie Download 2019-01-19 19:48:56
235 Fifty Shades Freed (2018) English Movie Download 2019-01-19 19:47:11
236 Dance Plus Hindi Tv Series Download 2019-01-19 19:46:25
237 Mowgli Legend of the Jungle (2018) WEB-DL English Movie Download 2019-01-19 19:45:24
238 Kabhi Alvida Naa Kehna (2006) Hindi Movie Download 2019-01-19 19:44:25
239 The Dark Knight Rises (2012) 1080p BluRay English Movie Download 2019-01-19 19:43:54
240 Sarkar (2018) HDRip Tamil & Telegu Movie Download 2019-01-19 19:43:25
241 Maari 2 (2018) DVDScr Tamil & Telegu Movie Download 2019-01-19 19:41:57
242 Chander Pahar (2013) DVDRip Indian Bangla Movie Download 2019-01-19 19:40:49
243 Hello Guru Prema Kosame (2018) Tamil & Telegu Movie Download 2019-01-19 19:38:08
244 Crisscross (2018) WEB-DL Indian Bangla Movie Download 2019-01-19 19:33:13
245 How to Train Your Dragon The Hidden World (2019) HDCAM Animation Movie Download 2019-01-19 19:32:22
246 Me Before You (2016) 720p BluRay English Movie Download 2019-01-19 19:31:41
247 Bird Box (2018) WEB-DL English Movie Download 2019-01-19 19:31:10
248 Satyameva Jayate (2018) WEB-DL Hindi Movie Download 2019-01-19 19:30:23
249 Jism 2 (2012) Hindi Movie Download 2019-01-15 18:35:23
250 Savyasachi (2018) HDRip Tamil & Telegu Movie Download 2019-01-15 18:29:30
251 Battlefield V PC Game PC Games Download 2019-01-15 18:27:28
252 Baazaar (2018) WEB-DL Hindi Movie Download 2019-01-15 18:26:16
253 Sarkar (2018) HDRip Tamil & Telegu Movie Download 2019-01-15 18:25:54
254 The Mummy (1999) Hindi Dubbed English Movie Download 2019-01-15 18:25:09
255 Mowgli Legend of the Jungle (2018) English Movie Download 2019-01-15 18:23:29
256 The Kapil Sharma Show (2019) Season 2 Hindi Tv Series Download 2019-01-15 18:22:37
257 Veer (2010) Hindi Movie Download 2019-01-15 18:17:08
258 K.G.F Chapter 1 (2018) New DVDScr Tamil & Telegu Movie Download 2019-01-15 18:15:29
259 Mowgli Legend of the Jungle (2018) English Movie Download 2019-01-12 13:04:11
260 Veer (2010) Hindi Movie Download 2019-01-12 13:03:08
261 Batman v Superman Dawn of Justice (2016) English Movie Download 2019-01-08 18:32:28
262 Charlie (2015) HDRip Tamil & Telegu Movie Download 2019-01-08 18:30:45
263 Boys Over Flowers Season 1 Complete Korean Movie Download 2019-01-08 18:30:11
264 Hachi - A Dog's Tale (2009) English Movie Download 2019-01-07 14:15:27
265 RoboCop (2014) 1080p BluRay English Movie Download 2019-01-07 13:24:20
266 RoboCop 3 (1993) 720p BluRay English Movie Download 2019-01-07 13:24:03
267 RoboCop 2 (1990) 720p BluRay English Movie Download 2019-01-07 13:23:46
268 RoboCop (1987) 720p BluRay English Movie Download 2019-01-07 13:23:30
269 Dhoom 3 (2013) Hindi Movie Download 2019-01-07 13:21:29
270 Gangs of Wasseypur II (2012) Hindi Movie Download 2019-01-07 13:20:41
271 Gangs of Wasseypur I (2012) Hindi Movie Download 2019-01-07 13:20:29
272 Bharat Ane Nenu (2018) Tamil & Telegu Movie Download 2019-01-07 13:05:19
273 The Punisher Season 1 Complete English Tv Series Download 2019-01-07 13:04:31
274 Avengers Infinity War (2018) English Movie Download 2019-01-07 13:03:09
275 Ant-Man and the Wasp (2018) English Movie Download 2019-01-07 12:59:39
276 Tumbbad (2018) Hindi Movie Download 2019-01-07 12:59:01
277 Ralph Breaks the Internet (2018) DVDScr Animation Movie Download 2019-01-07 12:58:18
278 Charlie (2015) Tamil & Telegu Movie Download 2019-01-07 12:57:16
279 Gabbar is Back (2015) Hindi Movie Download 2019-01-07 12:56:23
280 Alik Sukh (2013) Indian Bangla Movie Download 2019-01-07 12:55:49
281 96 (2018) HDRip Tamil & Telegu Movie Download 2018-12-31 11:44:14
282 The Mummy (1999) Hindi Dubbed English Movie Download 2018-12-31 11:39:37
283 Hotel Transylvania 3 (2018) 1080p BluRay Animation Movie Download 2018-12-31 11:35:14
284 Da Vinci's Demons Season 3 Complete English Tv Series Download 2018-12-31 11:34:15
285 Da Vinci's Demons Season 1,2 English Tv Series Download 2018-12-31 11:33:43
286 Overlord (2018) HDCAM English Movie Download 2018-12-31 11:31:10
287 Selection Day (2018) Season 1 Hindi Tv Series Download 2018-12-31 11:30:08
288 Watchmen (2009) 1080p BluRay English Movie Download 2018-12-31 11:29:15
289 Queen (2013) Hindi Movie Download 2018-12-31 10:58:50
290 The Avengers (2012) 720p BluRay English Movie Download 2018-12-29 18:23:14
291 Singham (2011) Hindi Movie Download 2018-12-29 18:22:23
292 Thor Ragnarok (2017) 720p BluRay English Movie Download 2018-12-29 18:21:59
293 Taare Zameen Par (2007) 1080p BluRay Hindi Movie Download 2018-12-29 18:21:32
294 Suicide Squad Hell to Pay (2018) 1080p BluRa English Movie Download 2018-12-29 18:21:07
295 Simmba (2018) CAMRip Hindi Movie Download 2018-12-29 18:19:50
296 Johnny English Strikes Again (2018) 1080p BluRay English Movie Download 2018-12-29 18:19:12
297 Grand Masti (2013) 720p BluRay Hindi Movie Download 2018-12-29 18:18:37
298 Van Helsing (2004) 720p BluRay English Movie Download 2018-12-29 18:18:09
299 Raja The Great (2017) HDRip Tamil & Telegu Movie Download 2018-12-29 18:17:29
300 Sanju (2018) 1080p BluRay Hindi Movie Download 2018-12-29 18:17:00
301 Fidaa (2017) Telugu HDRip Tamil & Telegu Movie Download 2018-12-29 18:16:26
302 The Twilight Movies Collection English Movie Download 2018-12-29 18:16:00
303 Devdas (2002) Hindi Movie Download 2018-12-29 18:12:01
304 Stardust (2007) 1080p BluRay English Movie Download 2018-12-29 18:11:24
305 The Gifted Season 1 Complete English Tv Series Download 2018-12-29 18:10:19
306 The Boss Baby (2017) 720p BluRay Animation Movie Download 2018-12-29 18:09:25
307 Dear John (2010) 720p BluRay English Movie Download 2018-12-29 18:08:53
308 Andhadhun (2018) WEB-DL Hindi Movie Download 2018-12-29 18:08:28
309 American Pie (1999-2012) All English Movie Download 2018-12-27 17:03:19
310 Veer-Zaara (2004) Hindi Movie Download 2018-12-27 16:57:26
311 K.G.F Chapter 1 (2018) CamRip (Hindi) Tamil & Telegu Movie Download 2018-12-27 16:56:54
312 Zero (2018) DVDScr Hindi Movie Download 2018-12-27 16:54:45
313 The Little Mermaid (2018) English Movie Download 2018-12-27 16:53:55
314 Fast and Furious 6 (2013) Hindi Dubbed English Movie Download 2018-12-27 16:52:42
315 The Fate Of The Furious (2017) Hindi Dubbed English Movie Download 2018-12-27 16:50:28
316 Kuch Kuch Hota Hai (1998) Hindi Movie Download 2018-12-27 16:48:13
317 Young Sheldon Season 1 Complete English Tv Series Download 2018-12-24 18:01:19
318 Ek Villain (2014) 1080p BluRay Hindi Movie Download 2018-12-24 18:00:37
319 Vikings Season 1,2,3,4 Complete English Tv Series Download 2018-12-24 17:59:50
320 Guardians of the Galaxy Vol. 2 (2017) 1080p BluRay English Movie Download 2018-12-17 18:30:55
321 Brothers (2015) 720p BluRay Hindi Movie Download 2018-12-17 18:29:46
322 Argo (2012) 1080p BluRay English Movie Download 2018-12-17 18:28:27
323 Mental 2 (2018) Hindi Dubbed Tamil & Telegu Movie Download 2018-12-17 18:24:46
324 Dil To Pagal Hai (1997) DvdRip Hindi Movie Download 2018-12-17 18:21:19
325 Ae Dil Hai Mushkil (2016) 1080p BluRay Hindi Movie Download 2018-12-17 18:20:41
326 Mausam (2011) Hindi Movie Download 2018-12-17 18:20:05
327 Baazaar (2018) CAMRip Hindi Movie Download 2018-12-17 18:19:08
328 Jalebi The Taste of Everlasting Love (2018) Hindi Movie Download 2018-12-17 18:18:29
329 Veer-Zaara (2004) Hindi Movie Download 2018-12-17 18:17:59
330 Kuch Kuch Hota Hai (1998) Hindi Movie Download 2018-12-17 18:17:31
331 Geetha Govindam (2018) WEB-HD Tamil & Telegu Movie Download 2018-12-17 18:17:03
332 Sanam Teri Kasam (2015) 1080p BluRay Hindi Movie Download 2018-12-17 18:16:44
333 Don 2 (2011) 1080p BluRay Hindi Movie Download 2018-12-17 18:16:07
334 Movavi Video Converter Software Download 2018-12-17 18:15:35
335 Action Jackson (2014) Hindi Movie Download 2018-12-17 18:14:35
336 Sarkar (2005) Hindi Movie Download 2018-12-17 18:14:07
337 The Dictator (2012) 720p BluRay English Movie Download 2018-12-17 18:10:17
338 Stree (2018) 720p BluRay Hindi Movie Download 2018-12-17 18:09:06
339 2.0 (2018) DVDScr Hindi Movie Download 2018-12-17 18:08:41
340 Batman v Superman Dawn of Justice (2016) English Movie Download 2018-12-17 18:07:13
341 Rab Ne Bana Di Jodi (2008) 720p BluRay Hindi Movie Download 2018-12-11 18:15:06
342 Angels & Demons (2009) 720p BluRay English Movie Download 2018-12-11 18:11:12
343 The Dictator (2012) 720p BluRay English Movie Download 2018-12-03 19:26:06
344 Sarkar (2005) Hindi Movie Download 2018-12-03 19:23:40
345 Sarkar (2018) CAMRip Tamil & Telegu Movie Download 2018-12-03 19:22:39
346 Action Jackson (2014) Hindi Movie Download 2018-12-03 19:19:59
347 The Raid Redemption (2011) English Movie Download 2018-11-28 18:15:05
348 Fanaa (2006) Hindi Movie Download 2018-11-27 11:43:20
349 Soorma (2018) WEB-DL Hindi Movie Download 2018-11-27 11:42:33
350 Forrest Gump (1994) 720p BluRay English Movie Download 2018-11-27 11:29:45
351 Rockstar (2011) 1080p BluRay Hindi Movie Download 2018-11-27 11:28:31
352 Sarkar (2018) CAMRip Tamil & Telegu Movie Download 2018-11-27 11:27:18
353 Srimanthudu (2015) Hindi Dubbed Tamil & Telegu Movie Download 2018-11-27 11:25:41
354 The Meg (2018) 1080p BluRay English Movie Download 2018-11-27 11:25:03
355 The House with a Clock in Its Walls (2018) HDCAM English Movie Download 2018-11-27 11:24:30
356 The Dark Knight (2008) English Movie Download 2018-11-27 11:23:56
357 Mirzapur Season 1 Web Series Hindi Tv Series Download 2018-11-27 10:50:58
358 Ant-Man and the Wasp (2018) 1080p BluRay English Movie Download 2018-11-27 10:49:42
359 The Huntsman Winter's War (2016) 720p BluRay English Movie Download 2018-11-27 10:49:12
360 Incredibles 2 (2018) 1080p BluRay Animation Movie Download 2018-11-27 10:36:07
361 Marshall (2017) 720p BluRay English Movie Download 2018-11-27 10:34:20

Movie Request


Find Us On Facebook